N894A SAAR-SADF
Flight info
| Callsign | N894A |
|---|---|
| Flight time | 0h 50m |
| Altitude | 21000 |
| Route | VASAL2G VASAL W20 MULTA W24 SNT FDO DCT |
| Aircraft | B58T/L-SG/C |
Departure
| Time | 2026-04-30 02:05 |
|---|---|
| Airport | Rosario Islas Malvinas International Airport (SAAR) |
Arrival
| Time | 2026-04-30 02:56 |
|---|---|
| Airport | San Fernando Airport (SADF) |
| Time | Latitude | Longitude | Altitude | Speed | Heading |
|---|---|---|---|---|---|
| 2026-04-30 01:46 | -32.91813 | -60.78197 | 89 ft | 0 kts | 21° |
| 2026-04-30 01:59 | -32.91801 | -60.78199 | 93 ft | 4 kts | 321° |
| 2026-04-30 01:59 | -32.91785 | -60.78233 | 91 ft | 5 kts | 289° |
| 2026-04-30 01:59 | -32.91751 | -60.78255 | 89 ft | 7 kts | 331° |
| 2026-04-30 02:00 | -32.91749 | -60.78320 | 92 ft | 10 kts | 256° |
| 2026-04-30 02:00 | -32.91767 | -60.78411 | 91 ft | 13 kts | 257° |
| 2026-04-30 02:00 | -32.91788 | -60.78522 | 89 ft | 14 kts | 257° |
| 2026-04-30 02:00 | -32.91766 | -60.78620 | 90 ft | 12 kts | 312° |
| 2026-04-30 02:01 | -32.91751 | -60.78639 | 90 ft | 0 kts | 314° |
| 2026-04-30 02:03 | -32.91743 | -60.78650 | 90 ft | 0 kts | 314° |
| 2026-04-30 02:03 | -32.91742 | -60.78650 | 90 ft | 1 kts | 314° |
| 2026-04-30 02:03 | -32.91719 | -60.78678 | 90 ft | 9 kts | 314° |
| 2026-04-30 02:04 | -32.91668 | -60.78759 | 90 ft | 9 kts | 328° |
| 2026-04-30 02:04 | -32.91633 | -60.78756 | 90 ft | 3 kts | 9° |
| 2026-04-30 02:04 | -32.91619 | -60.78754 | 90 ft | 0 kts | 9° |
| 2026-04-30 02:04 | -32.91553 | -60.78738 | 92 ft | 34 kts | 11° |
| 2026-04-30 02:05 | -32.91032 | -60.78621 | 95 ft | 111 kts | 10° |
| 2026-04-30 02:05 | -32.90172 | -60.78406 | 316 ft | 131 kts | 12° |
| 2026-04-30 02:05 | -32.89290 | -60.78182 | 823 ft | 130 kts | 13° |
| 2026-04-30 02:05 | -32.88372 | -60.77929 | 1135 ft | 143 kts | 7° |
| 2026-04-30 02:06 | -32.87345 | -60.77771 | 1424 ft | 154 kts | 6° |
| 2026-04-30 02:06 | -32.86271 | -60.77580 | 1701 ft | 160 kts | 28° |
| 2026-04-30 02:06 | -32.85417 | -60.76719 | 1996 ft | 164 kts | 45° |
| 2026-04-30 02:06 | -32.84665 | -60.75691 | 2278 ft | 166 kts | 58° |
| 2026-04-30 02:07 | -32.84373 | -60.74393 | 2616 ft | 162 kts | 96° |
| 2026-04-30 02:07 | -32.84796 | -60.73217 | 3036 ft | 153 kts | 136° |
| 2026-04-30 02:07 | -32.85600 | -60.72442 | 3450 ft | 146 kts | 137° |
| 2026-04-30 02:07 | -32.86192 | -60.71516 | 3853 ft | 140 kts | 127° |
| 2026-04-30 02:08 | -32.86721 | -60.70571 | 4256 ft | 135 kts | 127° |
| 2026-04-30 02:08 | -32.87225 | -60.69655 | 4667 ft | 130 kts | 127° |
| 2026-04-30 02:08 | -32.87715 | -60.68757 | 5002 ft | 134 kts | 127° |
| 2026-04-30 02:08 | -32.88270 | -60.67747 | 5028 ft | 156 kts | 127° |
| 2026-04-30 02:09 | -32.88892 | -60.66604 | 5033 ft | 172 kts | 126° |
| 2026-04-30 02:09 | -32.89565 | -60.65370 | 5031 ft | 182 kts | 128° |
| 2026-04-30 02:09 | -32.90523 | -60.64408 | 5027 ft | 182 kts | 159° |
| 2026-04-30 02:09 | -32.91740 | -60.63962 | 5025 ft | 185 kts | 168° |
| 2026-04-30 02:10 | -32.92987 | -60.63549 | 5029 ft | 187 kts | 166° |
| 2026-04-30 02:10 | -32.94238 | -60.63087 | 5024 ft | 189 kts | 165° |
| 2026-04-30 02:10 | -32.95430 | -60.62634 | 5334 ft | 173 kts | 165° |
| 2026-04-30 02:10 | -32.96462 | -60.62026 | 5732 ft | 162 kts | 145° |
| 2026-04-30 02:11 | -32.97298 | -60.61178 | 6134 ft | 153 kts | 145° |
| 2026-04-30 02:11 | -32.98107 | -60.60406 | 6528 ft | 146 kts | 147° |
| 2026-04-30 02:11 | -32.98900 | -60.59671 | 6867 ft | 143 kts | 148° |
| 2026-04-30 02:11 | -32.99681 | -60.58952 | 7211 ft | 141 kts | 149° |
| 2026-04-30 02:12 | -33.00450 | -60.58244 | 7557 ft | 139 kts | 150° |
| 2026-04-30 02:12 | -33.01207 | -60.57547 | 7913 ft | 137 kts | 151° |
| 2026-04-30 02:12 | -33.01964 | -60.56852 | 8236 ft | 138 kts | 152° |
| 2026-04-30 02:12 | -33.02729 | -60.56149 | 8557 ft | 139 kts | 152° |
| 2026-04-30 02:13 | -33.03488 | -60.55450 | 8878 ft | 140 kts | 153° |
| 2026-04-30 02:13 | -33.04262 | -60.54737 | 9203 ft | 142 kts | 153° |
| 2026-04-30 02:13 | -33.05057 | -60.54008 | 9480 ft | 147 kts | 154° |
| 2026-04-30 02:13 | -33.05884 | -60.53249 | 9727 ft | 153 kts | 153° |
| 2026-04-30 02:14 | -33.06739 | -60.52460 | 9964 ft | 158 kts | 153° |
| 2026-04-30 02:14 | -33.07615 | -60.51651 | 10203 ft | 160 kts | 154° |
| 2026-04-30 02:14 | -33.08502 | -60.50832 | 10445 ft | 163 kts | 153° |
| 2026-04-30 02:14 | -33.09404 | -60.49999 | 10688 ft | 165 kts | 153° |
| 2026-04-30 02:15 | -33.10318 | -60.49156 | 10947 ft | 167 kts | 153° |
| 2026-04-30 02:15 | -33.11242 | -60.48304 | 11211 ft | 169 kts | 153° |
| 2026-04-30 02:15 | -33.12160 | -60.47455 | 11472 ft | 170 kts | 153° |
| 2026-04-30 02:15 | -33.13099 | -60.46587 | 11746 ft | 171 kts | 154° |
| 2026-04-30 02:16 | -33.14049 | -60.45710 | 12029 ft | 173 kts | 154° |
| 2026-04-30 02:16 | -33.15000 | -60.44831 | 12316 ft | 173 kts | 154° |
| 2026-04-30 02:16 | -33.15951 | -60.43951 | 12608 ft | 173 kts | 154° |
| 2026-04-30 02:16 | -33.16907 | -60.43068 | 12916 ft | 174 kts | 155° |
| 2026-04-30 02:17 | -33.17865 | -60.42182 | 13226 ft | 174 kts | 155° |
| 2026-04-30 02:17 | -33.18826 | -60.41294 | 13538 ft | 175 kts | 155° |
| 2026-04-30 02:17 | -33.19779 | -60.40412 | 13844 ft | 176 kts | 155° |
| 2026-04-30 02:17 | -33.20748 | -60.39515 | 14119 ft | 177 kts | 156° |
| 2026-04-30 02:18 | -33.21721 | -60.38614 | 14398 ft | 177 kts | 156° |
| 2026-04-30 02:18 | -33.22694 | -60.37714 | 14682 ft | 177 kts | 156° |
| 2026-04-30 02:18 | -33.23669 | -60.36810 | 14968 ft | 177 kts | 156° |
| 2026-04-30 02:18 | -33.24645 | -60.35906 | 15258 ft | 178 kts | 156° |
| 2026-04-30 02:19 | -33.25623 | -60.34999 | 15548 ft | 178 kts | 156° |
| 2026-04-30 02:19 | -33.26602 | -60.34092 | 15842 ft | 178 kts | 157° |
| 2026-04-30 02:19 | -33.27581 | -60.33184 | 16138 ft | 178 kts | 157° |
| 2026-04-30 02:19 | -33.28561 | -60.32275 | 16438 ft | 178 kts | 158° |
| 2026-04-30 02:20 | -33.29528 | -60.31377 | 16735 ft | 179 kts | 158° |
| 2026-04-30 02:20 | -33.30510 | -60.30466 | 17040 ft | 179 kts | 158° |
| 2026-04-30 02:20 | -33.31493 | -60.29553 | 17348 ft | 179 kts | 158° |
| 2026-04-30 02:20 | -33.32475 | -60.28641 | 17659 ft | 179 kts | 158° |
| 2026-04-30 02:21 | -33.33458 | -60.27728 | 17974 ft | 179 kts | 158° |
| 2026-04-30 02:21 | -33.34440 | -60.26815 | 18285 ft | 179 kts | 159° |
| 2026-04-30 02:21 | -33.35423 | -60.25901 | 18561 ft | 179 kts | 159° |
| 2026-04-30 02:21 | -33.36405 | -60.24988 | 18834 ft | 179 kts | 159° |
| 2026-04-30 02:22 | -33.37385 | -60.24076 | 19109 ft | 178 kts | 160° |
| 2026-04-30 02:22 | -33.38362 | -60.23166 | 19389 ft | 177 kts | 160° |
| 2026-04-30 02:22 | -33.39320 | -60.22275 | 19662 ft | 176 kts | 160° |
| 2026-04-30 02:22 | -33.40284 | -60.21376 | 19943 ft | 175 kts | 161° |
| 2026-04-30 02:23 | -33.41240 | -60.20486 | 20226 ft | 173 kts | 161° |
| 2026-04-30 02:23 | -33.42186 | -60.19605 | 20509 ft | 171 kts | 162° |
| 2026-04-30 02:23 | -33.43118 | -60.18735 | 20795 ft | 168 kts | 162° |
| 2026-04-30 02:23 | -33.44039 | -60.17879 | 21006 ft | 171 kts | 163° |
| 2026-04-30 02:24 | -33.45026 | -60.16981 | 21020 ft | 185 kts | 161° |
| 2026-04-30 02:24 | -33.46082 | -60.16001 | 21025 ft | 198 kts | 160° |
| 2026-04-30 02:24 | -33.47194 | -60.14959 | 21026 ft | 208 kts | 159° |
| 2026-04-30 02:24 | -33.48353 | -60.13872 | 21023 ft | 215 kts | 158° |
| 2026-04-30 02:25 | -33.49533 | -60.12766 | 21023 ft | 221 kts | 158° |
| 2026-04-30 02:25 | -33.50758 | -60.11621 | 21020 ft | 226 kts | 158° |
| 2026-04-30 02:25 | -33.52006 | -60.10454 | 21019 ft | 229 kts | 157° |
| 2026-04-30 02:25 | -33.53259 | -60.09279 | 21021 ft | 229 kts | 157° |
| 2026-04-30 02:26 | -33.54513 | -60.08104 | 21023 ft | 229 kts | 157° |
| 2026-04-30 02:26 | -33.55769 | -60.06930 | 21018 ft | 229 kts | 157° |
| 2026-04-30 02:26 | -33.57025 | -60.05755 | 21017 ft | 229 kts | 157° |
| 2026-04-30 02:26 | -33.58282 | -60.04579 | 21021 ft | 229 kts | 157° |
| 2026-04-30 02:27 | -33.59539 | -60.03403 | 21021 ft | 229 kts | 158° |
| 2026-04-30 02:27 | -33.60796 | -60.02225 | 21024 ft | 229 kts | 157° |
| 2026-04-30 02:27 | -33.62050 | -60.01044 | 21019 ft | 230 kts | 156° |
| 2026-04-30 02:27 | -33.63212 | -59.99700 | 21021 ft | 242 kts | 144° |
| 2026-04-30 02:28 | -33.64244 | -59.98072 | 21020 ft | 248 kts | 139° |
| 2026-04-30 02:28 | -33.65217 | -59.96361 | 21019 ft | 246 kts | 141° |
| 2026-04-30 02:28 | -33.66260 | -59.94751 | 21021 ft | 245 kts | 142° |
| 2026-04-30 02:28 | -33.67265 | -59.93087 | 21020 ft | 248 kts | 138° |
| 2026-04-30 02:29 | -33.68224 | -59.91355 | 21018 ft | 249 kts | 137° |
| 2026-04-30 02:29 | -33.69184 | -59.89629 | 21016 ft | 248 kts | 138° |
| 2026-04-30 02:29 | -33.70157 | -59.87916 | 21018 ft | 248 kts | 138° |
| 2026-04-30 02:29 | -33.71132 | -59.86203 | 21014 ft | 249 kts | 138° |
| 2026-04-30 02:30 | -33.72104 | -59.84484 | 21018 ft | 249 kts | 138° |
| 2026-04-30 02:30 | -33.73064 | -59.82785 | 21018 ft | 249 kts | 138° |
| 2026-04-30 02:30 | -33.74036 | -59.81065 | 21016 ft | 249 kts | 138° |
| 2026-04-30 02:30 | -33.75003 | -59.79339 | 21018 ft | 250 kts | 136° |
| 2026-04-30 02:31 | -33.76008 | -59.77663 | 21016 ft | 245 kts | 142° |
| 2026-04-30 02:31 | -33.77042 | -59.76022 | 21017 ft | 248 kts | 139° |
| 2026-04-30 02:31 | -33.78017 | -59.74304 | 21014 ft | 250 kts | 137° |
| 2026-04-30 02:31 | -33.78974 | -59.72555 | 21018 ft | 250 kts | 137° |
| 2026-04-30 02:32 | -33.79944 | -59.70820 | 21016 ft | 250 kts | 138° |
| 2026-04-30 02:32 | -33.80920 | -59.69094 | 21017 ft | 250 kts | 138° |
| 2026-04-30 02:32 | -33.81895 | -59.67363 | 21017 ft | 250 kts | 137° |
| 2026-04-30 02:32 | -33.82853 | -59.65654 | 21017 ft | 250 kts | 137° |
| 2026-04-30 02:33 | -33.83829 | -59.63927 | 21017 ft | 247 kts | 141° |
| 2026-04-30 02:33 | -33.84980 | -59.62498 | 21018 ft | 233 kts | 154° |
| 2026-04-30 02:33 | -33.86217 | -59.61258 | 21019 ft | 231 kts | 156° |
| 2026-04-30 02:33 | -33.87439 | -59.59978 | 21018 ft | 235 kts | 152° |
| 2026-04-30 02:34 | -33.88619 | -59.58600 | 21016 ft | 237 kts | 150° |
| 2026-04-30 02:34 | -33.89790 | -59.57209 | 21016 ft | 237 kts | 151° |
| 2026-04-30 02:34 | -33.90972 | -59.55832 | 21020 ft | 236 kts | 151° |
| 2026-04-30 02:34 | -33.92158 | -59.54459 | 21019 ft | 236 kts | 151° |
| 2026-04-30 02:35 | -33.93324 | -59.53103 | 21018 ft | 237 kts | 151° |
| 2026-04-30 02:35 | -33.94510 | -59.51723 | 21017 ft | 237 kts | 151° |
| 2026-04-30 02:35 | -33.95693 | -59.50345 | 21017 ft | 237 kts | 151° |
| 2026-04-30 02:35 | -33.96878 | -59.48966 | 21016 ft | 237 kts | 151° |
| 2026-04-30 02:36 | -33.98061 | -59.47588 | 21014 ft | 237 kts | 151° |
| 2026-04-30 02:36 | -33.99243 | -59.46210 | 21017 ft | 237 kts | 151° |
| 2026-04-30 02:36 | -34.00428 | -59.44829 | 21015 ft | 237 kts | 151° |
| 2026-04-30 02:36 | -34.01613 | -59.43446 | 21016 ft | 237 kts | 151° |
| 2026-04-30 02:37 | -34.02798 | -59.42063 | 21012 ft | 237 kts | 151° |
| 2026-04-30 02:37 | -34.03985 | -59.40677 | 21016 ft | 237 kts | 151° |
| 2026-04-30 02:37 | -34.05152 | -59.39315 | 21013 ft | 237 kts | 151° |
| 2026-04-30 02:37 | -34.06339 | -59.37928 | 21015 ft | 237 kts | 151° |
| 2026-04-30 02:38 | -34.07525 | -59.36541 | 21013 ft | 237 kts | 151° |
| 2026-04-30 02:38 | -34.08711 | -59.35155 | 21016 ft | 237 kts | 151° |
| 2026-04-30 02:38 | -34.09893 | -59.33771 | 21055 ft | 235 kts | 151° |
| 2026-04-30 02:38 | -34.11085 | -59.32380 | 20731 ft | 237 kts | 151° |
| 2026-04-30 02:39 | -34.12236 | -59.31018 | 20355 ft | 227 kts | 151° |
| 2026-04-30 02:39 | -34.13345 | -59.29715 | 19978 ft | 219 kts | 151° |
| 2026-04-30 02:39 | -34.14418 | -59.28465 | 19615 ft | 217 kts | 151° |
| 2026-04-30 02:39 | -34.15521 | -59.27187 | 19162 ft | 223 kts | 150° |
| 2026-04-30 02:40 | -34.16645 | -59.25874 | 18707 ft | 227 kts | 149° |
| 2026-04-30 02:40 | -34.17786 | -59.24530 | 18256 ft | 230 kts | 148° |
| 2026-04-30 02:40 | -34.18940 | -59.23173 | 17741 ft | 233 kts | 148° |
| 2026-04-30 02:40 | -34.20102 | -59.21808 | 17233 ft | 234 kts | 147° |
| 2026-04-30 02:41 | -34.21270 | -59.20436 | 16726 ft | 234 kts | 147° |
| 2026-04-30 02:41 | -34.22438 | -59.19063 | 16232 ft | 235 kts | 147° |
| 2026-04-30 02:41 | -34.23610 | -59.17686 | 15714 ft | 235 kts | 147° |
| 2026-04-30 02:41 | -34.24761 | -59.16331 | 15192 ft | 233 kts | 146° |
| 2026-04-30 02:42 | -34.25917 | -59.14969 | 14666 ft | 232 kts | 146° |
| 2026-04-30 02:42 | -34.27069 | -59.13614 | 14153 ft | 230 kts | 146° |
| 2026-04-30 02:42 | -34.28215 | -59.12266 | 13625 ft | 229 kts | 146° |
| 2026-04-30 02:42 | -34.29352 | -59.10927 | 13055 ft | 228 kts | 145° |
| 2026-04-30 02:43 | -34.30483 | -59.09594 | 12492 ft | 226 kts | 144° |
| 2026-04-30 02:43 | -34.31603 | -59.08273 | 11944 ft | 224 kts | 144° |
| 2026-04-30 02:43 | -34.32715 | -59.06962 | 11396 ft | 222 kts | 143° |
| 2026-04-30 02:43 | -34.33815 | -59.05665 | 10868 ft | 220 kts | 143° |
| 2026-04-30 02:44 | -34.34904 | -59.04380 | 10339 ft | 218 kts | 142° |
| 2026-04-30 02:44 | -34.35982 | -59.03107 | 9815 ft | 215 kts | 142° |
| 2026-04-30 02:44 | -34.37035 | -59.01864 | 9255 ft | 213 kts | 142° |
| 2026-04-30 02:44 | -34.38089 | -59.00618 | 8695 ft | 211 kts | 141° |
| 2026-04-30 02:45 | -34.39138 | -58.99379 | 8141 ft | 209 kts | 141° |
| 2026-04-30 02:45 | -34.40175 | -58.98153 | 7610 ft | 208 kts | 141° |
| 2026-04-30 02:45 | -34.41202 | -58.96939 | 7077 ft | 206 kts | 141° |
| 2026-04-30 02:45 | -34.42220 | -58.95733 | 6551 ft | 204 kts | 141° |
| 2026-04-30 02:46 | -34.43232 | -58.94537 | 6006 ft | 202 kts | 140° |
| 2026-04-30 02:46 | -34.44235 | -58.93354 | 5460 ft | 201 kts | 139° |
| 2026-04-30 02:46 | -34.45232 | -58.92182 | 4918 ft | 199 kts | 138° |
| 2026-04-30 02:46 | -34.46218 | -58.91013 | 4366 ft | 197 kts | 137° |
| 2026-04-30 02:47 | -34.47180 | -58.89871 | 3824 ft | 195 kts | 137° |
| 2026-04-30 02:47 | -34.48142 | -58.88728 | 3284 ft | 192 kts | 137° |
| 2026-04-30 02:47 | -34.49071 | -58.87624 | 3006 ft | 176 kts | 137° |
| 2026-04-30 02:47 | -34.49884 | -58.86655 | 2992 ft | 153 kts | 138° |
| 2026-04-30 02:48 | -34.50602 | -58.85799 | 2992 ft | 140 kts | 138° |
| 2026-04-30 02:48 | -34.51287 | -58.84987 | 2993 ft | 135 kts | 139° |
| 2026-04-30 02:48 | -34.51730 | -58.84462 | 2992 ft | 134 kts | 139° |
| 2026-04-30 02:48 | -34.52393 | -58.83674 | 2993 ft | 133 kts | 139° |
| 2026-04-30 02:49 | -34.53048 | -58.82896 | 2994 ft | 132 kts | 139° |
| 2026-04-30 02:49 | -34.53917 | -58.81863 | 2996 ft | 131 kts | 138° |
| 2026-04-30 02:49 | -34.54347 | -58.81352 | 3001 ft | 130 kts | 139° |
| 2026-04-30 02:49 | -34.55203 | -58.80333 | 3000 ft | 130 kts | 139° |
| 2026-04-30 02:50 | -34.55639 | -58.79815 | 2999 ft | 130 kts | 139° |
| 2026-04-30 02:50 | -34.56212 | -58.78980 | 2965 ft | 137 kts | 117° |
| 2026-04-30 02:50 | -34.56316 | -58.77755 | 2750 ft | 154 kts | 84° |
| 2026-04-30 02:50 | -34.56158 | -58.76457 | 2555 ft | 156 kts | 85° |
| 2026-04-30 02:51 | -34.56051 | -58.75179 | 2520 ft | 147 kts | 88° |
| 2026-04-30 02:51 | -34.55970 | -58.73972 | 2513 ft | 141 kts | 88° |
| 2026-04-30 02:51 | -34.55874 | -58.72427 | 2499 ft | 137 kts | 89° |
| 2026-04-30 02:51 | -34.55742 | -58.71296 | 2499 ft | 136 kts | 70° |
| 2026-04-30 02:52 | -34.55147 | -58.70424 | 2505 ft | 136 kts | 41° |
| 2026-04-30 02:52 | -34.54685 | -58.69915 | 2506 ft | 135 kts | 44° |
| 2026-04-30 02:52 | -34.54006 | -58.69130 | 2508 ft | 134 kts | 44° |
| 2026-04-30 02:52 | -34.53303 | -58.68310 | 2306 ft | 146 kts | 44° |
| 2026-04-30 02:53 | -34.52559 | -58.67459 | 2065 ft | 147 kts | 45° |
| 2026-04-30 02:53 | -34.51827 | -58.66586 | 1814 ft | 148 kts | 45° |
| 2026-04-30 02:53 | -34.51092 | -58.65722 | 1568 ft | 147 kts | 45° |
| 2026-04-30 02:53 | -34.50383 | -58.64889 | 1440 ft | 140 kts | 46° |
| 2026-04-30 02:54 | -34.49669 | -58.64069 | 1224 ft | 140 kts | 46° |
| 2026-04-30 02:54 | -34.48989 | -58.63253 | 999 ft | 137 kts | 45° |
| 2026-04-30 02:54 | -34.48327 | -58.62459 | 782 ft | 130 kts | 45° |
| 2026-04-30 02:54 | -34.47681 | -58.61716 | 562 ft | 127 kts | 44° |
| 2026-04-30 02:55 | -34.47066 | -58.60990 | 383 ft | 121 kts | 44° |
| 2026-04-30 02:55 | -34.46472 | -58.60282 | 212 ft | 120 kts | 44° |
| 2026-04-30 02:55 | -34.45889 | -58.59599 | 31 ft | 111 kts | 45° |
| 2026-04-30 02:55 | -34.45409 | -58.59032 | 22 ft | 83 kts | 44° |
| 2026-04-30 02:56 | -34.45043 | -58.58601 | 21 ft | 61 kts | 44° |
| 2026-04-30 02:56 | -34.44858 | -58.58381 | 21 ft | 19 kts | 55° |
| 2026-04-30 02:56 | -34.44871 | -58.58311 | 21 ft | 8 kts | 136° |
| 2026-04-30 02:56 | -34.44898 | -58.58286 | 21 ft | 0 kts | 143° |
| 2026-04-30 02:59 | -34.44903 | -58.58281 | 21 ft | 3 kts | 143° |
| 2026-04-30 02:59 | -34.44936 | -58.58251 | 21 ft | 9 kts | 142° |
| 2026-04-30 02:59 | -34.45007 | -58.58202 | 21 ft | 15 kts | 151° |
| 2026-04-30 02:59 | -34.45107 | -58.58130 | 21 ft | 18 kts | 150° |
| 2026-04-30 03:00 | -34.45205 | -58.58057 | 21 ft | 15 kts | 147° |
| 2026-04-30 03:00 | -34.45226 | -58.57972 | 21 ft | 12 kts | 62° |
| 2026-04-30 03:00 | -34.45231 | -58.57944 | 21 ft | 0 kts | 151° |